sensor_id;sensor_type;location;lat;lon;timestamp;temperature;humidity
8313;DHT22;4194;43.408;24.626;2022-12-07T00:03:45;5.30;99.90
8313;DHT22;4194;43.408;24.626;2022-12-07T00:06:13;6.60;99.90
8313;DHT22;4194;43.408;24.626;2022-12-07T00:08:39;5.50;99.90
8313;DHT22;4194;43.408;24.626;2022-12-07T00:11:11;6.10;99.90
8313;DHT22;4194;43.408;24.626;2022-12-07T00:13:38;6.40;99.90
8313;DHT22;4194;43.408;24.626;2022-12-07T00:16:15;5.50;99.90
8313;DHT22;4194;43.408;24.626;2022-12-07T00:18:42;5.50;99.90
8313;DHT22;4194;43.408;24.626;2022-12-07T00:21:16;5.50;99.90
8313;DHT22;4194;43.408;24.626;2022-12-07T00:23:44;5.50;99.90
8313;DHT22;4194;43.408;24.626;2022-12-07T00:26:16;6.40;99.90
8313;DHT22;4194;43.408;24.626;2022-12-07T00:28:47;5.50;99.90
8313;DHT22;4194;43.408;24.626;2022-12-07T00:31:15;5.50;99.90
8313;DHT22;4194;43.408;24.626;2022-12-07T00:33:41;5.50;99.90
8313;DHT22;4194;43.408;24.626;2022-12-07T00:36:10;6.20;99.90
8313;DHT22;4194;43.408;24.626;2022-12-07T00:38:37;5.60;99.90
8313;DHT22;4194;43.408;24.626;2022-12-07T00:41:11;5.40;99.90
8313;DHT22;4194;43.408;24.626;2022-12-07T00:43:37;5.50;99.90
8313;DHT22;4194;43.408;24.626;2022-12-07T00:46:03;6.20;99.90
8313;DHT22;4194;43.408;24.626;2022-12-07T00:48:29;5.60;99.90
8313;DHT22;4194;43.408;24.626;2022-12-07T00:50:55;5.50;99.90
8313;DHT22;4194;43.408;24.626;2022-12-07T00:53:21;5.60;99.90
8313;DHT22;4194;43.408;24.626;2022-12-07T00:55:46;6.40;99.90
8313;DHT22;4194;43.408;24.626;2022-12-07T00:58:12;6.50;99.90
8313;DHT22;4194;43.408;24.626;2022-12-07T01:00:40;5.60;99.90
8313;DHT22;4194;43.408;24.626;2022-12-07T01:03:06;5.60;99.90
8313;DHT22;4194;43.408;24.626;2022-12-07T01:05:33;6.00;99.90
8313;DHT22;4194;43.408;24.626;2022-12-07T01:07:59;6.50;99.90
8313;DHT22;4194;43.408;24.626;2022-12-07T01:10:25;5.90;99.90
8313;DHT22;4194;43.408;24.626;2022-12-07T01:12:51;5.60;99.90
8313;DHT22;4194;43.408;24.626;2022-12-07T01:15:16;5.70;99.90
8313;DHT22;4194;43.408;24.626;2022-12-07T01:17:42;5.60;99.90
8313;DHT22;4194;43.408;24.626;2022-12-07T01:20:08;6.20;99.90
8313;DHT22;4194;43.408;24.626;2022-12-07T01:22:38;5.60;99.90
8313;DHT22;4194;43.408;24.626;2022-12-07T01:25:05;5.50;99.90
8313;DHT22;4194;43.408;24.626;2022-12-07T01:27:33;5.50;99.90
8313;DHT22;4194;43.408;24.626;2022-12-07T01:29:59;4.90;99.90
8313;DHT22;4194;43.408;24.626;2022-12-07T01:32:24;5.70;99.90
8313;DHT22;4194;43.408;24.626;2022-12-07T01:34:50;5.40;99.90
8313;DHT22;4194;43.408;24.626;2022-12-07T01:37:16;5.50;99.90
8313;DHT22;4194;43.408;24.626;2022-12-07T01:39:41;5.50;99.90
8313;DHT22;4194;43.408;24.626;2022-12-07T01:42:11;5.50;99.90
8313;DHT22;4194;43.408;24.626;2022-12-07T01:47:41;6.50;99.90
8313;DHT22;4194;43.408;24.626;2022-12-07T01:50:09;6.50;99.90
8313;DHT22;4194;43.408;24.626;2022-12-07T01:52:36;5.60;99.90
8313;DHT22;4194;43.408;24.626;2022-12-07T01:55:08;5.70;99.90
8313;DHT22;4194;43.408;24.626;2022-12-07T01:57:38;5.60;99.90
8313;DHT22;4194;43.408;24.626;2022-12-07T02:00:07;6.60;99.90
8313;DHT22;4194;43.408;24.626;2022-12-07T02:02:37;5.60;99.90
8313;DHT22;4194;43.408;24.626;2022-12-07T02:05:05;5.60;99.90
8313;DHT22;4194;43.408;24.626;2022-12-07T02:07:34;5.30;99.90
8313;DHT22;4194;43.408;24.626;2022-12-07T02:10:21;5.00;99.90
8313;DHT22;4194;43.408;24.626;2022-12-07T02:12:57;5.50;99.90
8313;DHT22;4194;43.408;24.626;2022-12-07T02:15:41;5.50;99.90
8313;DHT22;4194;43.408;24.626;2022-12-07T02:29:39;5.50;99.90
8313;DHT22;4194;43.408;24.626;2022-12-07T02:32:19;5.50;99.90
8313;DHT22;4194;43.408;24.626;2022-12-07T02:35:06;5.80;99.90
8313;DHT22;4194;43.408;24.626;2022-12-07T02:37:34;6.40;99.90
8313;DHT22;4194;43.408;24.626;2022-12-07T02:40:08;5.50;99.90
8313;DHT22;4194;43.408;24.626;2022-12-07T02:42:40;5.50;99.90
8313;DHT22;4194;43.408;24.626;2022-12-07T02:45:11;5.50;99.90
8313;DHT22;4194;43.408;24.626;2022-12-07T02:47:39;5.50;99.90
8313;DHT22;4194;43.408;24.626;2022-12-07T02:50:07;5.30;99.90
8313;DHT22;4194;43.408;24.626;2022-12-07T02:52:32;5.50;99.90
8313;DHT22;4194;43.408;24.626;2022-12-07T02:54:58;6.40;99.90
8313;DHT22;4194;43.408;24.626;2022-12-07T02:57:42;5.50;99.90
8313;DHT22;4194;43.408;24.626;2022-12-07T03:00:16;5.50;99.90
8313;DHT22;4194;43.408;24.626;2022-12-07T03:03:00;5.50;99.90
8313;DHT22;4194;43.408;24.626;2022-12-07T03:08:13;5.40;99.90
8313;DHT22;4194;43.408;24.626;2022-12-07T03:11:16;5.10;99.90
8313;DHT22;4194;43.408;24.626;2022-12-07T03:16:20;5.30;99.90
8313;DHT22;4194;43.408;24.626;2022-12-07T03:18:55;5.40;99.90
8313;DHT22;4194;43.408;24.626;2022-12-07T03:21:26;5.40;99.90
8313;DHT22;4194;43.408;24.626;2022-12-07T03:23:56;5.40;99.90
8313;DHT22;4194;43.408;24.626;2022-12-07T03:26:36;6.20;99.90
8313;DHT22;4194;43.408;24.626;2022-12-07T03:29:07;5.20;99.90
8313;DHT22;4194;43.408;24.626;2022-12-07T03:31:38;5.20;99.90
8313;DHT22;4194;43.408;24.626;2022-12-07T03:34:06;5.20;99.90
8313;DHT22;4194;43.408;24.626;2022-12-07T03:36:40;5.30;99.90
8313;DHT22;4194;43.408;24.626;2022-12-07T03:41:46;5.20;99.90
8313;DHT22;4194;43.408;24.626;2022-12-07T03:44:12;5.20;99.90
8313;DHT22;4194;43.408;24.626;2022-12-07T03:52:23;5.20;99.90
8313;DHT22;4194;43.408;24.626;2022-12-07T03:55:05;5.10;99.90
8313;DHT22;4194;43.408;24.626;2022-12-07T03:57:33;5.20;99.90
8313;DHT22;4194;43.408;24.626;2022-12-07T04:00:00;5.70;99.90
8313;DHT22;4194;43.408;24.626;2022-12-07T04:02:27;5.20;99.90
8313;DHT22;4194;43.408;24.626;2022-12-07T04:04:54;5.40;99.90
8313;DHT22;4194;43.408;24.626;2022-12-07T04:07:20;4.80;99.90
8313;DHT22;4194;43.408;24.626;2022-12-07T04:09:46;5.20;99.90
8313;DHT22;4194;43.408;24.626;2022-12-07T04:12:11;5.10;99.90
8313;DHT22;4194;43.408;24.626;2022-12-07T04:14:37;6.20;99.90
8313;DHT22;4194;43.408;24.626;2022-12-07T04:17:03;5.10;99.90
8313;DHT22;4194;43.408;24.626;2022-12-07T04:19:31;5.20;99.90
8313;DHT22;4194;43.408;24.626;2022-12-07T04:21:59;5.10;99.90
8313;DHT22;4194;43.408;24.626;2022-12-07T04:26:51;4.90;99.90
8313;DHT22;4194;43.408;24.626;2022-12-07T04:29:18;6.40;99.90
8313;DHT22;4194;43.408;24.626;2022-12-07T04:31:44;5.00;99.90
8313;DHT22;4194;43.408;24.626;2022-12-07T04:34:11;5.00;99.90
8313;DHT22;4194;43.408;24.626;2022-12-07T04:36:38;6.10;99.90
8313;DHT22;4194;43.408;24.626;2022-12-07T04:39:05;4.50;99.90
8313;DHT22;4194;43.408;24.626;2022-12-07T04:41:31;4.90;99.90
8313;DHT22;4194;43.408;24.626;2022-12-07T04:43:59;5.00;99.90
8313;DHT22;4194;43.408;24.626;2022-12-07T04:46:26;4.90;99.90
8313;DHT22;4194;43.408;24.626;2022-12-07T04:48:53;5.00;99.90
8313;DHT22;4194;43.408;24.626;2022-12-07T04:51:25;4.80;99.90
8313;DHT22;4194;43.408;24.626;2022-12-07T04:53:51;4.80;99.90
8313;DHT22;4194;43.408;24.626;2022-12-07T04:56:17;4.70;99.90
8313;DHT22;4194;43.408;24.626;2022-12-07T04:58:45;4.80;99.90
8313;DHT22;4194;43.408;24.626;2022-12-07T05:01:11;5.20;99.90
8313;DHT22;4194;43.408;24.626;2022-12-07T05:03:37;4.70;99.90
8313;DHT22;4194;43.408;24.626;2022-12-07T05:06:03;4.80;99.90
8313;DHT22;4194;43.408;24.626;2022-12-07T05:08:29;4.50;99.90
8313;DHT22;4194;43.408;24.626;2022-12-07T05:10:55;5.10;99.90
8313;DHT22;4194;43.408;24.626;2022-12-07T05:13:21;4.80;99.90
8313;DHT22;4194;43.408;24.626;2022-12-07T05:15:47;5.10;99.90
8313;DHT22;4194;43.408;24.626;2022-12-07T05:18:13;4.70;99.90
8313;DHT22;4194;43.408;24.626;2022-12-07T05:20:40;4.80;99.90
8313;DHT22;4194;43.408;24.626;2022-12-07T05:23:06;4.40;99.90
8313;DHT22;4194;43.408;24.626;2022-12-07T05:25:31;3.10;99.90
8313;DHT22;4194;43.408;24.626;2022-12-07T05:27:57;6.40;99.90
8313;DHT22;4194;43.408;24.626;2022-12-07T05:30:24;5.10;99.90
8313;DHT22;4194;43.408;24.626;2022-12-07T05:32:50;4.50;99.90
8313;DHT22;4194;43.408;24.626;2022-12-07T05:35:16;4.60;99.90
8313;DHT22;4194;43.408;24.626;2022-12-07T05:37:42;4.70;99.90
8313;DHT22;4194;43.408;24.626;2022-12-07T05:40:09;4.70;99.90
8313;DHT22;4194;43.408;24.626;2022-12-07T05:45:01;4.80;99.90
8313;DHT22;4194;43.408;24.626;2022-12-07T05:47:26;4.60;99.90
8313;DHT22;4194;43.408;24.626;2022-12-07T05:52:18;4.60;99.90
8313;DHT22;4194;43.408;24.626;2022-12-07T05:54:44;5.20;99.90
8313;DHT22;4194;43.408;24.626;2022-12-07T05:57:09;4.50;99.90
8313;DHT22;4194;43.408;24.626;2022-12-07T05:59:35;4.80;99.90
8313;DHT22;4194;43.408;24.626;2022-12-07T06:02:03;4.80;99.90
8313;DHT22;4194;43.408;24.626;2022-12-07T06:04:33;4.80;99.90
8313;DHT22;4194;43.408;24.626;2022-12-07T06:06:59;6.50;99.90
8313;DHT22;4194;43.408;24.626;2022-12-07T06:09:26;6.50;99.90
8313;DHT22;4194;43.408;24.626;2022-12-07T06:11:53;4.90;99.90
8313;DHT22;4194;43.408;24.626;2022-12-07T06:14:41;4.90;99.90
8313;DHT22;4194;43.408;24.626;2022-12-07T06:17:07;5.50;99.90
8313;DHT22;4194;43.408;24.626;2022-12-07T06:19:34;5.20;99.90
8313;DHT22;4194;43.408;24.626;2022-12-07T06:22:01;4.90;99.90
8313;DHT22;4194;43.408;24.626;2022-12-07T06:24:26;4.90;99.90
8313;DHT22;4194;43.408;24.626;2022-12-07T06:26:52;4.90;99.90
8313;DHT22;4194;43.408;24.626;2022-12-07T06:29:18;5.20;99.90
8313;DHT22;4194;43.408;24.626;2022-12-07T06:31:45;4.70;99.90
8313;DHT22;4194;43.408;24.626;2022-12-07T06:34:13;4.90;99.90
8313;DHT22;4194;43.408;24.626;2022-12-07T06:36:40;4.90;99.90
8313;DHT22;4194;43.408;24.626;2022-12-07T06:39:06;5.20;99.90
8313;DHT22;4194;43.408;24.626;2022-12-07T06:41:35;5.00;99.90
8313;DHT22;4194;43.408;24.626;2022-12-07T06:44:01;4.30;99.90
8313;DHT22;4194;43.408;24.626;2022-12-07T06:46:26;6.10;99.90
8313;DHT22;4194;43.408;24.626;2022-12-07T06:48:52;5.10;99.90
8313;DHT22;4194;43.408;24.626;2022-12-07T06:51:18;6.20;99.90
8313;DHT22;4194;43.408;24.626;2022-12-07T06:53:44;5.10;99.90
8313;DHT22;4194;43.408;24.626;2022-12-07T06:56:10;5.30;99.90
8313;DHT22;4194;43.408;24.626;2022-12-07T06:58:35;5.40;99.90
8313;DHT22;4194;43.408;24.626;2022-12-07T07:01:01;5.60;99.90
8313;DHT22;4194;43.408;24.626;2022-12-07T07:03:27;5.40;99.90
8313;DHT22;4194;43.408;24.626;2022-12-07T07:05:52;5.20;99.90
8313;DHT22;4194;43.408;24.626;2022-12-07T07:08:18;6.30;99.90
8313;DHT22;4194;43.408;24.626;2022-12-07T07:10:44;5.50;99.90
8313;DHT22;4194;43.408;24.626;2022-12-07T07:13:09;5.80;99.90
8313;DHT22;4194;43.408;24.626;2022-12-07T07:15:37;5.60;99.90
8313;DHT22;4194;43.408;24.626;2022-12-07T07:18:03;5.60;99.90
8313;DHT22;4194;43.408;24.626;2022-12-07T07:20:29;5.10;99.90
8313;DHT22;4194;43.408;24.626;2022-12-07T07:22:55;5.80;99.90
8313;DHT22;4194;43.408;24.626;2022-12-07T07:25:21;5.80;99.90
8313;DHT22;4194;43.408;24.626;2022-12-07T07:27:47;6.40;99.90
8313;DHT22;4194;43.408;24.626;2022-12-07T07:30:13;5.90;99.90
8313;DHT22;4194;43.408;24.626;2022-12-07T07:32:38;6.10;99.90
8313;DHT22;4194;43.408;24.626;2022-12-07T07:35:04;6.20;99.90
8313;DHT22;4194;43.408;24.626;2022-12-07T07:37:30;6.30;99.90
8313;DHT22;4194;43.408;24.626;2022-12-07T07:39:56;6.10;99.90
8313;DHT22;4194;43.408;24.626;2022-12-07T07:42:22;6.60;99.90
8313;DHT22;4194;43.408;24.626;2022-12-07T07:44:47;6.60;99.90
8313;DHT22;4194;43.408;24.626;2022-12-07T07:47:13;6.50;99.90
8313;DHT22;4194;43.408;24.626;2022-12-07T07:49:39;6.80;99.90
8313;DHT22;4194;43.408;24.626;2022-12-07T07:52:07;5.10;99.90
8313;DHT22;4194;43.408;24.626;2022-12-07T07:54:33;6.70;99.90
8313;DHT22;4194;43.408;24.626;2022-12-07T07:56:59;7.00;99.90
8313;DHT22;4194;43.408;24.626;2022-12-07T07:59:24;6.80;99.90
8313;DHT22;4194;43.408;24.626;2022-12-07T08:01:50;6.70;99.90
8313;DHT22;4194;43.408;24.626;2022-12-07T08:04:16;6.90;99.90
8313;DHT22;4194;43.408;24.626;2022-12-07T08:06:42;7.90;99.90
8313;DHT22;4194;43.408;24.626;2022-12-07T08:09:08;7.50;99.90
8313;DHT22;4194;43.408;24.626;2022-12-07T08:11:35;7.10;99.90
8313;DHT22;4194;43.408;24.626;2022-12-07T08:14:02;8.20;99.90
8313;DHT22;4194;43.408;24.626;2022-12-07T08:16:27;7.20;99.90
8313;DHT22;4194;43.408;24.626;2022-12-07T08:18:53;8.70;99.90
8313;DHT22;4194;43.408;24.626;2022-12-07T08:21:19;8.10;99.90
8313;DHT22;4194;43.408;24.626;2022-12-07T08:23:44;7.50;99.90
8313;DHT22;4194;43.408;24.626;2022-12-07T08:26:13;7.70;99.90
8313;DHT22;4194;43.408;24.626;2022-12-07T08:28:39;7.70;99.90
8313;DHT22;4194;43.408;24.626;2022-12-07T08:31:11;7.90;99.90
8313;DHT22;4194;43.408;24.626;2022-12-07T08:33:37;8.00;99.90
8313;DHT22;4194;43.408;24.626;2022-12-07T08:36:08;8.50;99.90
8313;DHT22;4194;43.408;24.626;2022-12-07T08:38:35;8.30;99.90
8313;DHT22;4194;43.408;24.626;2022-12-07T08:41:01;8.40;99.90
8313;DHT22;4194;43.408;24.626;2022-12-07T08:43:27;8.40;99.90
8313;DHT22;4194;43.408;24.626;2022-12-07T08:46:04;8.40;99.90
8313;DHT22;4194;43.408;24.626;2022-12-07T08:48:31;7.30;99.90
8313;DHT22;4194;43.408;24.626;2022-12-07T08:50:58;8.40;99.90
8313;DHT22;4194;43.408;24.626;2022-12-07T08:53:24;8.10;99.90
8313;DHT22;4194;43.408;24.626;2022-12-07T08:55:50;8.50;99.90
8313;DHT22;4194;43.408;24.626;2022-12-07T08:58:16;8.40;99.90
8313;DHT22;4194;43.408;24.626;2022-12-07T09:00:41;8.30;99.90
8313;DHT22;4194;43.408;24.626;2022-12-07T09:03:07;8.10;99.90
8313;DHT22;4194;43.408;24.626;2022-12-07T09:05:33;8.40;99.90
8313;DHT22;4194;43.408;24.626;2022-12-07T09:08:01;8.40;99.90
8313;DHT22;4194;43.408;24.626;2022-12-07T09:10:28;8.70;99.90
8313;DHT22;4194;43.408;24.626;2022-12-07T09:12:54;8.40;99.90
8313;DHT22;4194;43.408;24.626;2022-12-07T09:15:20;8.60;99.90
8313;DHT22;4194;43.408;24.626;2022-12-07T09:17:46;7.90;99.90
8313;DHT22;4194;43.408;24.626;2022-12-07T09:20:12;8.90;99.90
8313;DHT22;4194;43.408;24.626;2022-12-07T09:22:37;9.20;99.90
8313;DHT22;4194;43.408;24.626;2022-12-07T09:25:04;9.70;99.90
8313;DHT22;4194;43.408;24.626;2022-12-07T09:27:30;9.20;99.90
8313;DHT22;4194;43.408;24.626;2022-12-07T09:29:55;9.10;99.90
8313;DHT22;4194;43.408;24.626;2022-12-07T09:32:21;8.80;99.90
8313;DHT22;4194;43.408;24.626;2022-12-07T09:34:47;8.60;99.90
8313;DHT22;4194;43.408;24.626;2022-12-07T09:37:13;8.90;99.90
8313;DHT22;4194;43.408;24.626;2022-12-07T09:39:39;9.00;99.90
8313;DHT22;4194;43.408;24.626;2022-12-07T09:42:06;8.90;99.90
8313;DHT22;4194;43.408;24.626;2022-12-07T09:44:33;9.20;99.90
8313;DHT22;4194;43.408;24.626;2022-12-07T09:47:00;9.30;99.90
8313;DHT22;4194;43.408;24.626;2022-12-07T09:49:29;9.30;99.90
8313;DHT22;4194;43.408;24.626;2022-12-07T09:52:20;8.30;99.90
8313;DHT22;4194;43.408;24.626;2022-12-07T09:57:18;10.30;99.90
8313;DHT22;4194;43.408;24.626;2022-12-07T09:59:47;8.20;99.90
8313;DHT22;4194;43.408;24.626;2022-12-07T10:04:59;9.70;99.90
8313;DHT22;4194;43.408;24.626;2022-12-07T10:07:25;8.80;99.90
8313;DHT22;4194;43.408;24.626;2022-12-07T10:09:50;10.50;99.90
8313;DHT22;4194;43.408;24.626;2022-12-07T10:12:16;10.30;99.90
8313;DHT22;4194;43.408;24.626;2022-12-07T10:15:03;10.50;99.90
8313;DHT22;4194;43.408;24.626;2022-12-07T10:17:36;10.90;99.90
8313;DHT22;4194;43.408;24.626;2022-12-07T10:20:23;11.10;99.90
8313;DHT22;4194;43.408;24.626;2022-12-07T10:23:01;11.10;99.90
8313;DHT22;4194;43.408;24.626;2022-12-07T10:25:31;10.90;99.90
8313;DHT22;4194;43.408;24.626;2022-12-07T10:28:02;11.10;99.90
8313;DHT22;4194;43.408;24.626;2022-12-07T10:30:29;11.20;99.90
8313;DHT22;4194;43.408;24.626;2022-12-07T10:32:55;10.90;99.90
8313;DHT22;4194;43.408;24.626;2022-12-07T10:35:29;10.60;99.90
8313;DHT22;4194;43.408;24.626;2022-12-07T10:37:57;10.80;99.90
8313;DHT22;4194;43.408;24.626;2022-12-07T10:40:36;10.80;99.90
8313;DHT22;4194;43.408;24.626;2022-12-07T10:51:54;10.60;99.90
8313;DHT22;4194;43.408;24.626;2022-12-07T10:54:48;10.30;99.90
8313;DHT22;4194;43.408;24.626;2022-12-07T11:05:15;8.80;99.90
8313;DHT22;4194;43.408;24.626;2022-12-07T11:10:44;9.90;99.90
8313;DHT22;4194;43.408;24.626;2022-12-07T11:13:26;9.80;99.90
8313;DHT22;4194;43.408;24.626;2022-12-07T11:24:16;10.00;99.90
8313;DHT22;4194;43.408;24.626;2022-12-07T11:27:10;10.20;99.90
8313;DHT22;4194;43.408;24.626;2022-12-07T11:37:59;10.60;99.90
8313;DHT22;4194;43.408;24.626;2022-12-07T11:40:34;10.40;99.90
8313;DHT22;4194;43.408;24.626;2022-12-07T11:43:24;9.90;99.90
8313;DHT22;4194;43.408;24.626;2022-12-07T11:48:43;8.70;99.90
8313;DHT22;4194;43.408;24.626;2022-12-07T11:51:11;9.60;99.90
8313;DHT22;4194;43.408;24.626;2022-12-07T11:53:56;9.90;99.90
8313;DHT22;4194;43.408;24.626;2022-12-07T11:56:26;9.80;99.90
8313;DHT22;4194;43.408;24.626;2022-12-07T11:59:08;10.00;99.90
8313;DHT22;4194;43.408;24.626;2022-12-07T12:01:42;10.10;99.90
8313;DHT22;4194;43.408;24.626;2022-12-07T12:06:39;10.30;99.90
8313;DHT22;4194;43.408;24.626;2022-12-07T12:25:29;9.60;99.90
8313;DHT22;4194;43.408;24.626;2022-12-07T12:28:00;9.70;99.90
8313;DHT22;4194;43.408;24.626;2022-12-07T12:30:39;9.60;99.90
8313;DHT22;4194;43.408;24.626;2022-12-07T12:33:29;9.60;99.90
8313;DHT22;4194;43.408;24.626;2022-12-07T12:54:34;10.40;99.90
8313;DHT22;4194;43.408;24.626;2022-12-07T12:57:22;10.60;99.90
8313;DHT22;4194;43.408;24.626;2022-12-07T13:02:30;9.80;99.90
8313;DHT22;4194;43.408;24.626;2022-12-07T13:15:41;9.10;99.90
8313;DHT22;4194;43.408;24.626;2022-12-07T13:23:34;8.70;99.90
8313;DHT22;4194;43.408;24.626;2022-12-07T13:28:51;8.80;99.90
8313;DHT22;4194;43.408;24.626;2022-12-07T13:31:23;8.80;99.90
8313;DHT22;4194;43.408;24.626;2022-12-07T13:33:51;9.40;99.90
8313;DHT22;4194;43.408;24.626;2022-12-07T13:36:23;8.50;99.90
8313;DHT22;4194;43.408;24.626;2022-12-07T13:38:57;7.50;99.90
8313;DHT22;4194;43.408;24.626;2022-12-07T13:41:29;8.90;99.90
8313;DHT22;4194;43.408;24.626;2022-12-07T13:44:05;8.40;99.90
8313;DHT22;4194;43.408;24.626;2022-12-07T13:49:21;7.40;99.90
8313;DHT22;4194;43.408;24.626;2022-12-07T13:51:48;8.10;99.90
8313;DHT22;4194;43.408;24.626;2022-12-07T13:54:14;8.10;99.90
8313;DHT22;4194;43.408;24.626;2022-12-07T13:56:40;8.10;99.90
8313;DHT22;4194;43.408;24.626;2022-12-07T13:59:17;8.10;99.90
8313;DHT22;4194;43.408;24.626;2022-12-07T14:01:46;8.20;99.90
8313;DHT22;4194;43.408;24.626;2022-12-07T14:04:40;8.10;99.90
8313;DHT22;4194;43.408;24.626;2022-12-07T14:07:25;8.70;99.90
8313;DHT22;4194;43.408;24.626;2022-12-07T14:10:05;9.10;99.90
8313;DHT22;4194;43.408;24.626;2022-12-07T14:12:32;8.10;99.90
8313;DHT22;4194;43.408;24.626;2022-12-07T14:15:00;8.40;99.90
8313;DHT22;4194;43.408;24.626;2022-12-07T14:17:27;9.20;99.90
8313;DHT22;4194;43.408;24.626;2022-12-07T14:19:58;9.20;99.90
8313;DHT22;4194;43.408;24.626;2022-12-07T14:22:36;9.40;99.90
8313;DHT22;4194;43.408;24.626;2022-12-07T14:27:51;8.10;99.90
8313;DHT22;4194;43.408;24.626;2022-12-07T14:30:18;8.50;99.90
8313;DHT22;4194;43.408;24.626;2022-12-07T14:32:44;7.90;99.90
8313;DHT22;4194;43.408;24.626;2022-12-07T14:35:16;7.90;99.90
8313;DHT22;4194;43.408;24.626;2022-12-07T14:37:44;8.10;99.90
8313;DHT22;4194;43.408;24.626;2022-12-07T14:40:15;7.80;99.90
8313;DHT22;4194;43.408;24.626;2022-12-07T14:42:42;7.70;99.90
8313;DHT22;4194;43.408;24.626;2022-12-07T14:45:26;7.10;99.90
8313;DHT22;4194;43.408;24.626;2022-12-07T14:47:53;7.90;99.90
8313;DHT22;4194;43.408;24.626;2022-12-07T14:50:20;7.60;99.90
8313;DHT22;4194;43.408;24.626;2022-12-07T14:52:48;7.60;99.90
8313;DHT22;4194;43.408;24.626;2022-12-07T14:57:48;7.30;99.90
8313;DHT22;4194;43.408;24.626;2022-12-07T15:00:15;7.50;99.90
8313;DHT22;4194;43.408;24.626;2022-12-07T15:02:43;7.40;99.90
8313;DHT22;4194;43.408;24.626;2022-12-07T15:05:09;7.30;99.90
8313;DHT22;4194;43.408;24.626;2022-12-07T15:07:34;8.30;99.90
8313;DHT22;4194;43.408;24.626;2022-12-07T15:10:00;6.80;99.90
8313;DHT22;4194;43.408;24.626;2022-12-07T15:12:27;7.20;99.90
8313;DHT22;4194;43.408;24.626;2022-12-07T15:14:54;7.20;99.90
8313;DHT22;4194;43.408;24.626;2022-12-07T15:17:20;5.50;99.90
8313;DHT22;4194;43.408;24.626;2022-12-07T15:19:46;7.10;99.90
8313;DHT22;4194;43.408;24.626;2022-12-07T15:22:11;7.10;99.90
8313;DHT22;4194;43.408;24.626;2022-12-07T15:24:37;7.30;99.90
8313;DHT22;4194;43.408;24.626;2022-12-07T15:27:03;7.00;99.90
8313;DHT22;4194;43.408;24.626;2022-12-07T15:29:29;6.90;99.90
8313;DHT22;4194;43.408;24.626;2022-12-07T15:31:55;7.30;99.90
8313;DHT22;4194;43.408;24.626;2022-12-07T15:34:22;6.60;99.90
8313;DHT22;4194;43.408;24.626;2022-12-07T15:36:48;6.90;99.90
8313;DHT22;4194;43.408;24.626;2022-12-07T15:39:14;7.00;99.90
8313;DHT22;4194;43.408;24.626;2022-12-07T15:41:39;6.40;99.90
8313;DHT22;4194;43.408;24.626;2022-12-07T15:44:05;6.30;99.90
8313;DHT22;4194;43.408;24.626;2022-12-07T15:46:49;7.00;99.90
8313;DHT22;4194;43.408;24.626;2022-12-07T15:49:18;7.00;99.90
8313;DHT22;4194;43.408;24.626;2022-12-07T15:51:44;6.90;99.90
8313;DHT22;4194;43.408;24.626;2022-12-07T15:54:29;6.80;99.90
8313;DHT22;4194;43.408;24.626;2022-12-07T15:56:55;6.60;99.90
8313;DHT22;4194;43.408;24.626;2022-12-07T15:59:21;6.90;99.90
8313;DHT22;4194;43.408;24.626;2022-12-07T16:01:47;6.50;99.90
8313;DHT22;4194;43.408;24.626;2022-12-07T16:04:13;6.80;99.90
8313;DHT22;4194;43.408;24.626;2022-12-07T16:06:39;6.20;99.90
8313;DHT22;4194;43.408;24.626;2022-12-07T16:09:05;6.80;99.90
8313;DHT22;4194;43.408;24.626;2022-12-07T16:11:31;6.90;99.90
8313;DHT22;4194;43.408;24.626;2022-12-07T16:13:57;7.00;99.90
8313;DHT22;4194;43.408;24.626;2022-12-07T16:16:22;7.10;99.90
8313;DHT22;4194;43.408;24.626;2022-12-07T16:18:49;7.00;99.90
8313;DHT22;4194;43.408;24.626;2022-12-07T16:21:16;7.00;99.90
8313;DHT22;4194;43.408;24.626;2022-12-07T16:23:42;7.10;99.90
8313;DHT22;4194;43.408;24.626;2022-12-07T16:26:11;7.00;99.90
8313;DHT22;4194;43.408;24.626;2022-12-07T16:28:37;6.60;99.90
8313;DHT22;4194;43.408;24.626;2022-12-07T16:31:12;8.70;99.90
8313;DHT22;4194;43.408;24.626;2022-12-07T16:33:39;7.30;99.90
8313;DHT22;4194;43.408;24.626;2022-12-07T16:36:06;6.80;99.90
8313;DHT22;4194;43.408;24.626;2022-12-07T16:38:33;6.80;99.90
8313;DHT22;4194;43.408;24.626;2022-12-07T16:40:59;6.90;99.90
8313;DHT22;4194;43.408;24.626;2022-12-07T16:43:25;7.10;99.90
8313;DHT22;4194;43.408;24.626;2022-12-07T16:45:51;7.10;99.90
8313;DHT22;4194;43.408;24.626;2022-12-07T16:48:17;7.00;99.90
8313;DHT22;4194;43.408;24.626;2022-12-07T16:50:43;7.70;99.90
8313;DHT22;4194;43.408;24.626;2022-12-07T16:53:10;7.10;99.90
8313;DHT22;4194;43.408;24.626;2022-12-07T16:55:41;8.00;99.90
8313;DHT22;4194;43.408;24.626;2022-12-07T16:58:08;8.60;99.90
8313;DHT22;4194;43.408;24.626;2022-12-07T17:00:34;7.50;99.90
8313;DHT22;4194;43.408;24.626;2022-12-07T17:03:00;7.50;99.90
8313;DHT22;4194;43.408;24.626;2022-12-07T17:05:26;6.20;99.90
8313;DHT22;4194;43.408;24.626;2022-12-07T17:07:53;7.20;99.90
8313;DHT22;4194;43.408;24.626;2022-12-07T17:10:19;8.50;99.90
8313;DHT22;4194;43.408;24.626;2022-12-07T17:12:45;6.30;99.90
8313;DHT22;4194;43.408;24.626;2022-12-07T17:15:11;7.00;99.90
8313;DHT22;4194;43.408;24.626;2022-12-07T17:20:18;6.90;99.90
8313;DHT22;4194;43.408;24.626;2022-12-07T17:22:45;6.90;99.90
8313;DHT22;4194;43.408;24.626;2022-12-07T17:25:11;6.90;99.90
8313;DHT22;4194;43.408;24.626;2022-12-07T17:27:37;7.00;99.90
8313;DHT22;4194;43.408;24.626;2022-12-07T17:30:04;7.00;99.90
8313;DHT22;4194;43.408;24.626;2022-12-07T17:32:30;7.80;99.90
8313;DHT22;4194;43.408;24.626;2022-12-07T17:34:56;7.10;99.90
8313;DHT22;4194;43.408;24.626;2022-12-07T17:37:22;6.90;99.90
8313;DHT22;4194;43.408;24.626;2022-12-07T17:39:47;7.00;99.90
8313;DHT22;4194;43.408;24.626;2022-12-07T17:42:13;7.30;99.90
8313;DHT22;4194;43.408;24.626;2022-12-07T17:44:58;5.80;99.90
8313;DHT22;4194;43.408;24.626;2022-12-07T17:47:23;6.80;99.90
8313;DHT22;4194;43.408;24.626;2022-12-07T17:49:49;6.80;99.90
8313;DHT22;4194;43.408;24.626;2022-12-07T17:52:15;7.40;99.90
8313;DHT22;4194;43.408;24.626;2022-12-07T17:54:59;7.50;99.90
8313;DHT22;4194;43.408;24.626;2022-12-07T17:57:25;6.90;99.90
8313;DHT22;4194;43.408;24.626;2022-12-07T17:59:50;8.30;99.90
8313;DHT22;4194;43.408;24.626;2022-12-07T18:02:17;7.00;99.90
8313;DHT22;4194;43.408;24.626;2022-12-07T18:04:43;6.50;99.90
8313;DHT22;4194;43.408;24.626;2022-12-07T18:07:10;7.00;99.90
8313;DHT22;4194;43.408;24.626;2022-12-07T18:09:36;6.80;99.90
8313;DHT22;4194;43.408;24.626;2022-12-07T18:12:02;6.80;99.90
8313;DHT22;4194;43.408;24.626;2022-12-07T18:14:28;7.10;99.90
8313;DHT22;4194;43.408;24.626;2022-12-07T18:16:54;6.90;99.90
8313;DHT22;4194;43.408;24.626;2022-12-07T18:19:20;6.90;99.90
8313;DHT22;4194;43.408;24.626;2022-12-07T18:21:45;6.20;99.90
8313;DHT22;4194;43.408;24.626;2022-12-07T18:24:14;6.90;99.90
8313;DHT22;4194;43.408;24.626;2022-12-07T18:26:40;7.10;99.90
8313;DHT22;4194;43.408;24.626;2022-12-07T18:29:07;5.70;99.90
8313;DHT22;4194;43.408;24.626;2022-12-07T18:31:34;8.30;99.90
8313;DHT22;4194;43.408;24.626;2022-12-07T18:34:04;6.80;99.90
8313;DHT22;4194;43.408;24.626;2022-12-07T18:36:33;6.60;99.90
8313;DHT22;4194;43.408;24.626;2022-12-07T18:38:59;6.50;99.90
8313;DHT22;4194;43.408;24.626;2022-12-07T18:41:24;6.70;99.90